createdAt,value
2023-04-12T00:00:55.797Z,86.73
2023-04-12T00:03:22.577Z,86.63
2023-04-12T00:05:54.643Z,86.80
2023-04-12T00:08:33.657Z,86.94
2023-04-12T00:11:00.953Z,87.26
2023-04-12T00:13:27.949Z,87.58
2023-04-12T00:15:54.453Z,87.81
2023-04-12T00:18:25.407Z,88.59
2023-04-12T00:20:52.599Z,87.65
2023-04-12T00:23:19.095Z,87.48
2023-04-12T00:25:45.720Z,87.41
2023-04-12T00:28:12.320Z,87.44
2023-04-12T00:30:38.862Z,87.37
2023-04-12T00:33:05.364Z,87.78
2023-04-12T00:35:31.898Z,87.96
2023-04-12T00:37:58.467Z,88.02
2023-04-12T00:40:25.366Z,88.02
2023-04-12T00:42:51.778Z,87.87
2023-04-12T00:45:18.288Z,87.56
2023-04-12T00:47:45.076Z,87.69
2023-04-12T00:50:11.978Z,87.34
2023-04-12T00:52:39.789Z,87.46
2023-04-12T00:55:07.470Z,87.68
2023-04-12T00:57:39.521Z,87.36
2023-04-12T01:00:14.204Z,87.26
2023-04-12T01:02:50.724Z,87.34
2023-04-12T01:05:22.376Z,87.76
2023-04-12T01:10:33.321Z,89.00
2023-04-12T01:13:09.027Z,88.96
2023-04-12T01:15:40.462Z,89.52
2023-04-12T01:18:34.395Z,90.01
2023-04-12T01:21:07.110Z,90.10
2023-04-12T01:24:08.042Z,89.98
2023-04-12T01:26:44.627Z,89.96
2023-04-12T01:29:13.367Z,89.93
2023-04-12T01:31:42.008Z,89.49
2023-04-12T01:34:12.346Z,89.11
2023-04-12T01:36:40.199Z,89.40
2023-04-12T01:39:08.150Z,90.08
2023-04-12T01:41:39.886Z,90.54
2023-04-12T01:44:06.325Z,90.12
2023-04-12T01:46:34.556Z,89.75
2023-04-12T01:49:01.402Z,89.36
2023-04-12T01:51:50.967Z,89.05
2023-04-12T01:54:24.478Z,88.73
2023-04-12T01:56:57.824Z,88.62
2023-04-12T01:59:28.217Z,88.64
2023-04-12T02:01:54.963Z,88.96
2023-04-12T02:04:22.295Z,89.00
2023-04-12T02:06:49.068Z,89.34
2023-04-12T02:11:57.322Z,90.16
2023-04-12T02:14:23.902Z,90.04
2023-04-12T02:16:50.754Z,89.76
2023-04-12T02:19:17.249Z,89.76
2023-04-12T02:21:45.614Z,90.17
2023-04-12T02:24:13.036Z,90.87
2023-04-12T02:26:40.076Z,91.03
2023-04-12T02:29:10.476Z,90.43
2023-04-12T02:31:39.001Z,90.03
2023-04-12T02:34:06.439Z,89.79
2023-04-12T02:36:33.031Z,89.74
2023-04-12T02:38:59.644Z,89.54
2023-04-12T02:41:38.175Z,89.47
2023-04-12T02:44:04.862Z,89.61
2023-04-12T02:46:31.870Z,89.51
2023-04-12T02:48:58.504Z,89.18
2023-04-12T02:51:25.048Z,89.15
2023-04-12T02:53:51.621Z,89.50
2023-04-12T02:56:19.270Z,89.57
2023-04-12T02:58:46.372Z,89.30
2023-04-12T03:01:13.327Z,89.39
2023-04-12T03:03:41.895Z,89.30
2023-04-12T03:06:11.381Z,90.03
2023-04-12T03:08:38.435Z,90.66
2023-04-12T03:11:04.919Z,90.96
2023-04-12T03:13:31.371Z,90.68
2023-04-12T03:15:59.557Z,90.92
2023-04-12T03:18:26.612Z,91.07
2023-04-12T03:20:53.059Z,91.26
2023-04-12T03:23:20.580Z,91.39
2023-04-12T03:25:47.601Z,91.44
2023-04-12T03:28:14.075Z,91.97
2023-04-12T03:30:41.097Z,92.00
2023-04-12T03:33:07.762Z,92.70
2023-04-12T03:35:34.387Z,93.45
2023-04-12T03:38:00.943Z,93.39
2023-04-12T03:40:27.485Z,93.58
2023-04-12T03:45:55.824Z,93.49
2023-04-12T03:48:22.627Z,93.45
2023-04-12T03:50:49.082Z,93.49
2023-04-12T03:53:15.769Z,93.26
2023-04-12T03:55:42.341Z,93.26
2023-04-12T03:58:08.779Z,92.75
2023-04-12T04:00:35.392Z,92.88
2023-04-12T04:03:03.404Z,92.77
2023-04-12T04:05:31.039Z,92.73
2023-04-12T04:08:02.353Z,92.70
2023-04-12T04:10:29.131Z,92.79
2023-04-12T04:12:55.720Z,93.19
2023-04-12T04:15:22.565Z,93.71
2023-04-12T04:17:49.355Z,94.12
2023-04-12T04:20:16.139Z,94.30
2023-04-12T04:22:42.584Z,94.40
2023-04-12T04:25:09.437Z,94.54
2023-04-12T04:27:38.551Z,94.37
2023-04-12T04:30:06.168Z,93.98
2023-04-12T04:32:34.069Z,94.06
2023-04-12T04:35:00.748Z,93.85
2023-04-12T04:37:30.542Z,93.62
2023-04-12T04:39:57.193Z,93.22
2023-04-12T04:42:24.428Z,93.68
2023-04-12T04:45:02.661Z,93.81
2023-04-12T04:47:32.119Z,92.73
2023-04-12T04:50:00.153Z,92.19
2023-04-12T04:52:26.678Z,92.35
2023-04-12T04:54:57.720Z,92.55
2023-04-12T04:57:26.811Z,92.56
2023-04-12T04:59:53.386Z,92.41
2023-04-12T05:02:19.997Z,92.51
2023-04-12T05:04:46.514Z,92.05
2023-04-12T05:07:16.825Z,92.05
2023-04-12T05:09:43.308Z,92.00
2023-04-12T05:12:09.839Z,91.75
2023-04-12T05:14:47.313Z,92.02
2023-04-12T05:17:18.254Z,92.02
2023-04-12T05:19:44.905Z,92.00
2023-04-12T05:22:11.504Z,92.03
2023-04-12T05:24:38.149Z,92.18
2023-04-12T05:27:04.919Z,92.31
2023-04-12T05:29:31.771Z,92.77
2023-04-12T05:31:59.299Z,93.65
2023-04-12T05:34:25.768Z,94.71
2023-04-12T05:36:52.329Z,94.33
2023-04-12T05:39:20.614Z,93.81
2023-04-12T05:41:47.402Z,94.17
2023-04-12T05:44:13.973Z,97.38
2023-04-12T05:46:40.821Z,96.96
2023-04-12T05:49:07.944Z,88.88
2023-04-12T05:51:40.509Z,83.25
2023-04-12T05:54:08.226Z,79.03
2023-04-12T05:56:34.556Z,75.10
2023-04-12T05:59:05.189Z,69.95
2023-04-12T06:01:34.543Z,66.80
2023-04-12T06:04:02.794Z,65.97
2023-04-12T06:06:30.568Z,65.15
2023-04-12T06:09:00.671Z,66.79
2023-04-12T06:11:27.446Z,67.66
2023-04-12T06:13:55.994Z,69.27
2023-04-12T06:16:22.506Z,71.65
2023-04-12T06:18:49.071Z,74.92
2023-04-12T06:21:16.172Z,78.29
2023-04-12T06:23:42.695Z,81.50
2023-04-12T06:26:09.688Z,83.51
2023-04-12T06:28:36.235Z,84.52
2023-04-12T06:31:02.946Z,85.86
2023-04-12T06:33:29.575Z,85.98
2023-04-12T06:35:56.181Z,86.96
2023-04-12T06:38:22.791Z,88.09
2023-04-12T06:40:49.436Z,87.57
2023-04-12T06:43:19.203Z,87.05
2023-04-12T06:45:46.657Z,88.31
2023-04-12T06:48:13.145Z,87.48
2023-04-12T06:50:40.239Z,87.74
2023-04-12T06:53:06.709Z,87.74
2023-04-12T06:55:33.270Z,87.48
2023-04-12T06:58:00.540Z,86.14
2023-04-12T07:00:27.105Z,85.37
2023-04-12T07:02:53.609Z,85.22
2023-04-12T07:05:20.350Z,84.26
2023-04-12T07:07:46.871Z,84.94
2023-04-12T07:10:13.444Z,83.92
2023-04-12T07:12:40.022Z,83.25
2023-04-12T07:15:06.834Z,82.09
2023-04-12T07:17:33.343Z,82.03
2023-04-12T07:22:33.097Z,82.91
2023-04-12T07:24:59.662Z,79.62
2023-04-12T07:27:26.482Z,80.23
2023-04-12T07:29:53.450Z,79.96
2023-04-12T07:32:20.392Z,79.21
2023-04-12T07:34:47.374Z,80.63
2023-04-12T07:37:13.931Z,79.38
2023-04-12T07:39:41.023Z,78.79
2023-04-12T07:42:07.578Z,77.58
2023-04-12T07:44:35.549Z,76.05
2023-04-12T07:47:03.682Z,73.14
2023-04-12T07:49:30.238Z,70.75
2023-04-12T07:51:57.549Z,69.83
2023-04-12T07:54:27.737Z,66.79
2023-04-12T07:56:58.884Z,67.49
2023-04-12T07:59:25.498Z,63.88
2023-04-12T08:01:52.856Z,62.93
2023-04-12T08:04:19.424Z,60.79
2023-04-12T08:06:46.221Z,61.36
2023-04-12T08:09:12.751Z,61.58
2023-04-12T08:11:39.330Z,60.27
2023-04-12T08:14:05.846Z,60.05
2023-04-12T08:16:33.076Z,59.44
2023-04-12T08:18:59.581Z,59.57
2023-04-12T08:21:27.726Z,57.01
2023-04-12T08:23:54.502Z,54.64
2023-04-12T08:26:21.280Z,52.92
2023-04-12T08:28:48.715Z,55.59
2023-04-12T08:31:16.565Z,53.83
2023-04-12T08:33:43.469Z,54.91
2023-04-12T08:36:10.340Z,54.81
2023-04-12T08:38:45.711Z,54.04
2023-04-12T08:41:13.981Z,55.18
2023-04-12T08:43:47.576Z,54.20
2023-04-12T08:46:17.477Z,51.29
2023-04-12T08:48:49.039Z,51.91
2023-04-12T08:51:21.713Z,50.38
2023-04-12T08:53:49.049Z,51.68
2023-04-12T08:56:16.623Z,50.87
2023-04-12T08:58:48.536Z,51.42
2023-04-12T09:01:17.208Z,49.44
2023-04-12T09:03:45.480Z,44.85
2023-04-12T09:06:17.851Z,44.33
2023-04-12T09:08:57.502Z,49.62
2023-04-12T09:11:28.016Z,48.81
2023-04-12T09:13:56.224Z,47.19
2023-04-12T09:16:42.913Z,44.73
2023-04-12T09:19:09.967Z,44.98
2023-04-12T09:21:37.229Z,44.45
2023-04-12T09:24:14.898Z,45.45
2023-04-12T09:26:41.863Z,44.70
2023-04-12T09:29:24.192Z,45.25
2023-04-12T09:32:17.929Z,45.75
2023-04-12T09:34:58.437Z,43.15
2023-04-12T09:37:25.060Z,42.00
2023-04-12T09:40:08.165Z,41.95
2023-04-12T09:42:36.399Z,41.40
2023-04-12T09:45:22.553Z,43.83
2023-04-12T09:47:49.336Z,42.03
2023-04-12T09:50:23.044Z,43.02
2023-04-12T09:52:50.759Z,42.30
2023-04-12T09:55:17.813Z,42.28
2023-04-12T09:57:57.346Z,42.54
2023-04-12T10:00:26.956Z,41.14
2023-04-12T10:02:56.626Z,43.07
2023-04-12T10:05:26.589Z,42.18
2023-04-12T10:07:54.941Z,40.57
2023-04-12T10:10:22.789Z,42.33
2023-04-12T10:12:50.273Z,42.74
2023-04-12T10:15:18.112Z,41.24
2023-04-12T10:21:42.904Z,41.22
2023-04-12T10:24:32.882Z,39.94
2023-04-12T10:29:38.281Z,38.93
2023-04-12T10:32:24.063Z,39.46
2023-04-12T10:34:52.989Z,38.53
2023-04-12T10:37:20.344Z,38.94
2023-04-12T10:39:53.531Z,39.28
2023-04-12T10:42:23.215Z,39.59
2023-04-12T10:44:58.688Z,39.74
2023-04-12T10:47:48.853Z,39.73
2023-04-12T10:50:27.306Z,40.67
2023-04-12T10:53:22.273Z,40.01
2023-04-12T10:55:52.132Z,41.57
2023-04-12T10:58:46.706Z,40.36
2023-04-12T11:01:14.017Z,40.32
2023-04-12T11:04:05.253Z,41.16
2023-04-12T11:06:42.162Z,40.34
2023-04-12T11:09:17.007Z,39.99
2023-04-12T11:11:44.015Z,42.73
2023-04-12T11:14:11.071Z,40.36
2023-04-12T11:17:08.418Z,41.38
2023-04-12T11:19:38.544Z,41.41
2023-04-12T11:22:06.603Z,40.69
2023-04-12T11:24:33.173Z,42.16
2023-04-12T11:27:00.825Z,39.89
2023-04-12T11:29:27.482Z,41.40
2023-04-12T11:31:55.972Z,40.85
2023-04-12T11:34:22.467Z,41.57
2023-04-12T11:36:53.285Z,42.38
2023-04-12T11:39:21.188Z,40.99
2023-04-12T11:41:49.083Z,41.08
2023-04-12T11:44:19.451Z,42.99
2023-04-12T11:46:46.513Z,43.39
2023-04-12T11:49:23.499Z,41.91
2023-04-12T11:51:49.926Z,41.41
2023-04-12T11:54:16.510Z,41.26
2023-04-12T11:56:43.076Z,41.18
2023-04-12T11:59:10.058Z,40.16
2023-04-12T12:01:37.830Z,41.84
2023-04-12T12:04:05.666Z,41.00
2023-04-12T12:06:32.996Z,41.44
2023-04-12T12:09:00.589Z,43.10
2023-04-12T12:11:27.467Z,43.04
2023-04-12T12:13:55.053Z,42.66
2023-04-12T12:16:27.133Z,43.30
2023-04-12T12:18:54.690Z,42.88
2023-04-12T12:21:21.675Z,42.43
2023-04-12T12:23:49.055Z,43.64
2023-04-12T12:26:22.890Z,42.48
2023-04-12T12:28:55.053Z,42.70
2023-04-12T12:31:23.771Z,41.35
2023-04-12T12:33:55.131Z,41.40
2023-04-12T12:36:33.213Z,42.18
2023-04-12T12:39:15.510Z,42.63
2023-04-12T12:41:42.068Z,42.09
2023-04-12T12:44:09.084Z,42.28
2023-04-12T12:49:06.057Z,41.68
2023-04-12T12:51:33.181Z,41.60
2023-04-12T12:53:59.901Z,41.39
2023-04-12T12:56:26.642Z,41.89
2023-04-12T12:58:53.099Z,41.85
2023-04-12T13:01:19.661Z,41.25
2023-04-12T13:03:46.974Z,41.54
2023-04-12T13:06:13.511Z,41.43
2023-04-12T13:08:40.002Z,41.18
2023-04-12T13:11:06.866Z,41.28
2023-04-12T13:13:33.278Z,42.15
2023-04-12T13:15:59.723Z,41.97
2023-04-12T13:18:26.546Z,42.40
2023-04-12T13:20:52.896Z,42.22
2023-04-12T13:23:19.530Z,42.44
2023-04-12T13:25:46.019Z,43.26
2023-04-12T13:28:12.974Z,42.73
2023-04-12T13:30:39.311Z,43.16
2023-04-12T13:33:05.825Z,42.82
2023-04-12T13:35:32.308Z,41.84
2023-04-12T13:37:58.761Z,42.25
2023-04-12T13:40:25.518Z,41.62
2023-04-12T13:42:52.572Z,42.30
2023-04-12T13:45:19.072Z,43.24
2023-04-12T13:47:45.618Z,42.46
2023-04-12T13:50:12.128Z,42.90
2023-04-12T13:52:38.782Z,42.48
2023-04-12T13:55:08.318Z,42.59
2023-04-12T13:57:35.778Z,43.26
2023-04-12T14:00:02.311Z,41.66
2023-04-12T14:02:31.232Z,43.13
2023-04-12T14:04:58.038Z,43.38
2023-04-12T14:07:24.533Z,42.92
2023-04-12T14:09:51.278Z,42.79
2023-04-12T14:12:17.769Z,43.49
2023-04-12T14:14:44.429Z,43.73
2023-04-12T14:17:11.363Z,43.39
2023-04-12T14:19:38.051Z,43.07
2023-04-12T14:22:04.740Z,42.98
2023-04-12T14:24:31.777Z,43.85
2023-04-12T14:26:59.476Z,43.55
2023-04-12T14:29:26.738Z,44.16
2023-04-12T14:31:53.262Z,44.66
2023-04-12T14:36:56.809Z,45.45
2023-04-12T14:39:24.359Z,45.55
2023-04-12T14:41:50.786Z,46.36
2023-04-12T14:44:20.000Z,46.42
2023-04-12T14:46:47.094Z,46.85
2023-04-12T14:49:19.541Z,47.78
2023-04-12T14:51:47.162Z,47.99
2023-04-12T14:54:13.681Z,48.90
2023-04-12T14:56:48.299Z,49.84
2023-04-12T14:59:17.864Z,49.61
2023-04-12T15:01:44.880Z,49.96
2023-04-12T15:04:11.527Z,51.98
2023-04-12T15:06:48.209Z,52.02
2023-04-12T15:09:17.518Z,53.83
2023-04-12T15:11:46.312Z,53.05
2023-04-12T15:14:20.742Z,55.10
2023-04-12T15:16:49.219Z,56.31
2023-04-12T15:19:21.047Z,57.98
2023-04-12T15:21:52.647Z,58.63
2023-04-12T15:24:19.530Z,59.51
2023-04-12T15:26:48.424Z,61.23
2023-04-12T15:29:18.755Z,62.16
2023-04-12T15:31:45.939Z,62.96
2023-04-12T15:34:13.465Z,64.54
2023-04-12T15:36:41.037Z,64.74
2023-04-12T15:39:07.573Z,64.69
2023-04-12T15:41:38.454Z,65.10
2023-04-12T15:44:05.580Z,65.98
2023-04-12T15:46:32.101Z,66.64
2023-04-12T15:48:58.899Z,67.23
2023-04-12T15:51:27.163Z,68.11
2023-04-12T15:53:54.359Z,68.99
2023-04-12T15:56:24.376Z,69.83
2023-04-12T15:58:57.613Z,69.50
2023-04-12T16:01:25.300Z,69.88
2023-04-12T16:03:53.565Z,70.19
2023-04-12T16:06:20.770Z,71.21
2023-04-12T16:08:47.904Z,71.00
2023-04-12T16:11:17.185Z,71.22
2023-04-12T16:13:45.534Z,71.37
2023-04-12T16:16:13.534Z,72.15
2023-04-12T16:18:41.526Z,71.91
2023-04-12T16:21:09.068Z,72.08
2023-04-12T16:23:37.927Z,72.81
2023-04-12T16:26:05.774Z,72.53
2023-04-12T16:28:33.150Z,72.33
2023-04-12T16:30:59.731Z,72.50
2023-04-12T16:33:27.636Z,73.06
2023-04-12T16:35:54.485Z,73.87
2023-04-12T16:40:59.169Z,74.33
2023-04-12T16:43:26.546Z,73.88
2023-04-12T16:45:53.140Z,73.52
2023-04-12T16:48:22.670Z,73.33
2023-04-12T16:50:49.528Z,73.17
2023-04-12T16:53:16.954Z,73.11
2023-04-12T16:55:46.385Z,73.37
2023-04-12T16:58:14.270Z,73.18
2023-04-12T17:00:43.132Z,73.00
2023-04-12T17:03:11.606Z,73.07
2023-04-12T17:05:40.301Z,72.75
2023-04-12T17:08:09.363Z,72.32
2023-04-12T17:10:37.164Z,73.00
2023-04-12T17:13:04.407Z,72.77
2023-04-12T17:15:31.492Z,73.00
2023-04-12T17:18:05.899Z,73.03
2023-04-12T17:20:33.356Z,74.01
2023-04-12T17:23:00.176Z,73.37
2023-04-12T17:25:31.342Z,73.56
2023-04-12T17:28:02.638Z,73.51
2023-04-12T17:30:29.754Z,73.73
2023-04-12T17:32:57.635Z,73.88
2023-04-12T17:35:24.225Z,73.78
2023-04-12T17:37:50.701Z,73.64
2023-04-12T17:40:17.798Z,73.75
2023-04-12T17:42:44.763Z,73.15
2023-04-12T17:45:12.855Z,73.66
2023-04-12T17:47:40.435Z,73.31
2023-04-12T17:50:09.130Z,73.18
2023-04-12T17:52:39.166Z,73.58
2023-04-12T17:55:07.521Z,73.41
2023-04-12T17:57:34.030Z,73.07
2023-04-12T18:00:00.614Z,73.67
2023-04-12T18:02:27.306Z,73.61
2023-04-12T18:04:54.124Z,73.61
2023-04-12T18:07:21.346Z,73.39
2023-04-12T18:09:48.268Z,73.74
2023-04-12T18:12:14.887Z,73.54
2023-04-12T18:14:41.338Z,73.55
2023-04-12T18:17:08.303Z,73.91
2023-04-12T18:19:34.935Z,73.78
2023-04-12T18:22:01.418Z,74.59
2023-04-12T18:24:27.945Z,75.27
2023-04-12T18:26:54.368Z,75.81
2023-04-12T18:29:21.125Z,76.27
2023-04-12T18:31:47.871Z,77.10
2023-04-12T18:34:14.443Z,77.56
2023-04-12T18:36:42.283Z,78.37
2023-04-12T18:39:08.933Z,78.60
2023-04-12T18:41:36.093Z,79.70
2023-04-12T18:44:03.090Z,80.49
2023-04-12T18:46:29.655Z,79.91
2023-04-12T18:48:56.414Z,80.02
2023-04-12T18:51:23.238Z,79.83
2023-04-12T18:53:51.192Z,81.79
2023-04-12T18:56:23.146Z,81.01
2023-04-12T18:58:55.992Z,82.65
2023-04-12T19:01:23.534Z,82.93
2023-04-12T19:03:50.207Z,82.47
2023-04-12T19:06:18.193Z,81.16
2023-04-12T19:08:44.689Z,80.27
2023-04-12T19:11:11.256Z,82.11
2023-04-12T19:13:38.360Z,82.25
2023-04-12T19:16:07.922Z,82.50
2023-04-12T19:18:34.795Z,82.35
2023-04-12T19:21:02.681Z,83.20
2023-04-12T19:23:30.771Z,82.23
2023-04-12T19:25:59.914Z,83.55
2023-04-12T19:28:27.793Z,83.36
2023-04-12T19:30:54.898Z,83.59
2023-04-12T19:33:21.510Z,83.47
2023-04-12T19:35:48.124Z,83.36
2023-04-12T19:38:15.842Z,83.03
2023-04-12T19:40:42.788Z,82.52
2023-04-12T19:43:09.230Z,83.40
2023-04-12T19:45:36.109Z,83.96
2023-04-12T19:48:02.617Z,82.99
2023-04-12T19:50:31.288Z,81.92
2023-04-12T19:52:57.825Z,81.73
2023-04-12T19:55:25.224Z,80.89
2023-04-12T19:57:52.062Z,83.16
2023-04-12T20:00:23.285Z,83.56
2023-04-12T20:02:51.537Z,82.73
2023-04-12T20:05:19.610Z,82.36
2023-04-12T20:07:46.115Z,83.25
2023-04-12T20:10:13.889Z,83.94
2023-04-12T20:12:40.488Z,84.38
2023-04-12T20:15:08.745Z,83.81
2023-04-12T20:20:37.354Z,82.41
2023-04-12T20:23:04.801Z,82.98
2023-04-12T20:25:35.601Z,83.48
2023-04-12T20:28:02.930Z,83.26
2023-04-12T20:30:30.099Z,81.23
2023-04-12T20:32:57.251Z,81.69
2023-04-12T20:35:23.853Z,80.12
2023-04-12T20:37:51.255Z,80.09
2023-04-12T20:40:18.825Z,78.91
2023-04-12T20:42:45.344Z,78.97
2023-04-12T20:45:12.287Z,78.81
2023-04-12T20:50:10.794Z,78.02
2023-04-12T20:52:37.238Z,78.23
2023-04-12T20:55:04.811Z,78.12
2023-04-12T20:57:31.357Z,78.30
2023-04-12T20:59:59.442Z,78.20
2023-04-12T21:02:26.272Z,77.71
2023-04-12T21:04:52.806Z,77.91
2023-04-12T21:07:20.266Z,77.64
2023-04-12T21:09:46.729Z,77.57
2023-04-12T21:12:13.178Z,77.87
2023-04-12T21:14:40.296Z,77.29
2023-04-12T21:17:07.885Z,77.30
2023-04-12T21:19:41.937Z,77.62
2023-04-12T21:22:08.764Z,77.29
2023-04-12T21:24:38.278Z,77.43
2023-04-12T21:27:09.454Z,77.42
2023-04-12T21:29:41.053Z,77.03
2023-04-12T21:32:08.560Z,77.38
2023-04-12T21:34:35.537Z,77.40
2023-04-12T21:37:04.115Z,77.41
2023-04-12T21:39:31.025Z,77.38
2023-04-12T21:41:58.109Z,77.20
2023-04-12T21:44:25.531Z,77.24
2023-04-12T21:46:52.500Z,77.34
2023-04-12T21:49:19.030Z,77.38
2023-04-12T21:51:49.253Z,77.21
2023-04-12T21:54:16.398Z,77.38
2023-04-12T21:56:42.754Z,77.62
2023-04-12T21:59:09.221Z,77.76
2023-04-12T22:01:36.121Z,77.99
2023-04-12T22:04:02.607Z,78.11
2023-04-12T22:06:29.096Z,78.39
2023-04-12T22:08:55.650Z,78.40
2023-04-12T22:11:22.233Z,78.28
2023-04-12T22:13:48.823Z,78.61
2023-04-12T22:16:16.879Z,78.31
2023-04-12T22:18:46.351Z,78.15
2023-04-12T22:21:13.470Z,77.79
2023-04-12T22:23:40.692Z,77.98
2023-04-12T22:26:12.207Z,77.83
2023-04-12T22:28:38.952Z,78.35
2023-04-12T22:31:06.091Z,77.98
2023-04-12T22:33:32.643Z,77.57
2023-04-12T22:35:59.204Z,77.04
2023-04-12T22:38:25.981Z,77.04
2023-04-12T22:40:54.516Z,76.83
2023-04-12T22:43:22.506Z,75.99
2023-04-12T22:45:48.914Z,75.80
2023-04-12T22:48:15.516Z,76.19
2023-04-12T22:50:42.384Z,75.30
2023-04-12T22:53:09.197Z,75.72
2023-04-12T22:55:36.597Z,76.33
2023-04-12T22:58:07.089Z,75.75
2023-04-12T23:00:36.801Z,75.04
2023-04-12T23:03:04.327Z,74.86
2023-04-12T23:05:31.037Z,74.63
2023-04-12T23:07:57.562Z,75.30
2023-04-12T23:10:24.017Z,74.92
2023-04-12T23:12:53.672Z,74.36
2023-04-12T23:15:20.776Z,74.88
2023-04-12T23:17:50.134Z,74.75
2023-04-12T23:20:17.236Z,74.50
2023-04-12T23:25:16.937Z,74.26
2023-04-12T23:27:43.547Z,74.24
2023-04-12T23:30:11.550Z,74.43
2023-04-12T23:32:39.103Z,74.76
2023-04-12T23:35:06.452Z,74.97
2023-04-12T23:37:33.455Z,74.63
2023-04-12T23:40:08.269Z,74.64
2023-04-12T23:42:35.760Z,73.49
2023-04-12T23:45:03.699Z,73.89
2023-04-12T23:47:30.161Z,73.85
2023-04-12T23:49:56.852Z,73.73
2023-04-12T23:52:23.335Z,73.70
2023-04-12T23:54:49.861Z,73.70
2023-04-12T23:57:16.302Z,72.72
2023-04-12T23:59:42.836Z,73.23
